Time;durP1;ratioP1;P1;durP2;ratioP2;P2;SDS_P1;SDS_P2;PMS_P1;PMS_P2;Temp;Humidity;BMP_temperature;BMP_pressure;BME280_temperature;BME280_humidity;BME280_pressure;Samples;Min_cycle;Max_cycle;Signal;HPM_P1;HPM_P2
2022/04/19 00:00:46;;;;;;;2.90;2.60;;;;;;;6.17;69.58;101045.13;2556100;23;20647;-67
2022/04/19 00:01:48;;;;;;;3.13;2.23;;;;;;;6.93;69.75;101167.47;2556160;23;20216;-67
2022/04/19 00:02:49;;;;;;;3.35;2.10;;;;;;;6.93;69.39;101159.22;2569551;23;20162;-67
2022/04/19 00:03:49;;;;;;;2.97;2.07;;;;;;;6.99;68.33;101157.63;2569853;23;20146;-66
2022/04/19 00:04:51;;;;;;;2.80;2.30;;;;;;;7.00;69.43;101159.19;2569711;23;20594;-67
2022/04/19 00:05:51;;;;;;;3.22;2.17;;;;;;;6.99;69.56;101155.66;2569393;23;20622;-67
2022/04/19 00:06:52;;;;;;;3.57;2.40;;;;;;;6.59;69.76;101089.97;2568791;23;20505;-67
2022/04/19 00:07:53;;;;;;;4.13;2.40;;;;;;;7.06;70.09;101158.41;2569399;23;20196;-67
2022/04/19 00:08:53;;;;;;;3.43;2.60;;;;;;;7.06;70.44;101150.13;2569564;23;20158;-67
2022/04/19 00:09:54;;;;;;;2.70;2.23;;;;;;;6.91;70.28;101134.81;2569354;23;20234;-67
2022/04/19 00:10:54;;;;;;;3.40;2.40;;;;;;;7.05;70.70;101150.53;2569739;23;20154;-67
2022/04/19 00:11:57;;;;;;;2.87;2.20;;;;;;;6.86;70.48;101131.66;2569884;23;20594;-67
2022/04/19 00:12:59;;;;;;;2.75;2.30;;;;;;;7.11;69.94;101146.97;2569678;23;20151;-67
2022/04/19 00:14:00;;;;;;;4.20;2.40;;;;;;;6.86;69.94;101121.44;2569920;23;20152;-67
2022/04/19 00:15:01;;;;;;;3.13;2.70;;;;;;;7.15;70.13;101144.22;2569452;23;20148;-67
2022/04/19 00:16:01;;;;;;;3.80;2.50;;;;;;;7.29;70.49;101150.47;2569815;23;20152;-67
2022/04/19 00:17:02;;;;;;;4.53;3.10;;;;;;;7.30;70.36;101151.28;2568575;23;20159;-67
2022/04/19 00:18:04;;;;;;;2.50;2.30;;;;;;;7.32;70.02;101146.13;2569863;23;20201;-67
2022/04/19 00:19:06;;;;;;;3.25;2.40;;;;;;;7.31;69.45;101148.13;2569237;23;20162;-67
2022/04/19 00:20:07;;;;;;;2.95;2.22;;;;;;;7.35;69.26;101148.13;2569793;23;20652;-67
2022/04/19 00:21:07;;;;;;;2.63;2.13;;;;;;;7.32;69.07;101148.91;2569778;23;20503;-67
2022/04/19 00:22:08;;;;;;;3.23;2.40;;;;;;;7.33;68.22;101136.72;2569761;23;20378;-67
2022/04/19 00:23:12;;;;;;;3.13;2.47;;;;;;;7.13;68.51;101114.28;2569943;23;20156;-67
2022/04/19 00:24:13;;;;;;;3.50;2.58;;;;;;;7.35;69.15;101148.91;2569586;23;20262;-66
2022/04/19 00:25:13;;;;;;;2.73;2.03;;;;;;;7.35;68.66;101145.34;2569254;23;20148;-66
2022/04/19 00:26:14;;;;;;;2.80;2.07;;;;;;;7.29;68.15;101142.22;2569789;23;20613;-66
2022/04/19 00:27:14;;;;;;;2.70;2.20;;;;;;;7.31;68.36;101137.09;2568950;23;20179;-67
2022/04/19 00:28:16;;;;;;;3.03;2.10;;;;;;;7.31;68.96;101139.84;2569527;23;20175;-66
2022/04/19 00:29:16;;;;;;;3.05;2.40;;;;;;;7.31;67.98;101134.34;2569260;23;20160;-66
2022/04/19 00:30:17;;;;;;;4.17;2.60;;;;;;;7.27;68.04;101149.31;2569596;23;20146;-66
2022/04/19 00:31:17;;;;;;;3.77;2.60;;;;;;;7.26;67.95;101142.22;2569711;23;20186;-66
2022/04/19 00:32:18;;;;;;;3.57;2.30;;;;;;;7.23;67.14;101134.75;2569851;23;20232;-66
2022/04/19 00:33:18;;;;;;;3.37;2.40;;;;;;;7.25;67.42;101130.44;2569852;23;20621;-66
2022/04/19 00:34:19;;;;;;;3.40;2.63;;;;;;;7.24;67.47;101134.38;2569686;23;20155;-66
2022/04/19 00:35:19;;;;;;;3.50;2.60;;;;;;;7.05;67.22;101112.75;2569329;23;20167;-66
2022/04/19 00:36:21;;;;;;;3.97;2.80;;;;;;;7.24;67.87;101128.84;2569119;23;20173;-66
2022/04/19 00:37:23;;;;;;;3.17;2.30;;;;;;;7.28;67.37;101126.09;2569204;23;20178;-66
2022/04/19 00:38:23;;;;;;;3.75;2.40;;;;;;;7.29;67.87;101122.91;2569534;23;20231;-66
2022/04/19 00:39:24;;;;;;;3.33;2.50;;;;;;;7.31;67.57;101128.03;2569374;23;20152;-66
2022/04/19 00:40:26;;;;;;;5.83;2.33;;;;;;;7.32;67.34;101127.63;2569938;23;20635;-66
2022/04/19 00:41:26;;;;;;;3.53;2.47;;;;;;;7.26;66.81;101120.97;2569785;23;20166;-66
2022/04/19 00:42:28;;;;;;;2.97;2.37;;;;;;;7.20;67.00;101116.25;2569678;23;20159;-66
2022/04/19 00:43:29;;;;;;;4.03;2.78;;;;;;;7.14;66.89;101120.59;2569825;23;20676;-66
2022/04/19 00:44:29;;;;;;;3.63;2.60;;;;;;;7.03;67.31;101101.31;2569573;23;20558;-66
2022/04/19 00:45:34;;;;;;;2.80;2.10;;;;;;;7.18;67.09;101116.63;2569210;23;20172;-66
2022/04/19 00:46:34;;;;;;;2.83;2.38;;;;;;;7.15;66.73;101122.97;2568846;23;20140;-66
2022/04/19 00:47:38;;;;;;;2.97;2.30;;;;;;;7.16;67.11;101121.78;2569233;23;20202;-66
2022/04/19 00:48:38;;;;;;;2.97;2.20;;;;;;;6.74;66.45;101052.97;2569110;23;20404;-66
2022/04/19 00:49:43;;;;;;;3.40;2.27;;;;;;;7.18;65.97;101121.38;2569470;23;20626;-66
2022/04/19 00:50:44;;;;;;;2.72;2.10;;;;;;;7.12;66.33;101115.47;2569541;23;20147;-66
2022/04/19 00:51:45;;;;;;;3.03;2.27;;;;;;;7.18;65.99;101121.38;2569829;23;20152;-66
2022/04/19 00:52:46;;;;;;;2.90;2.30;;;;;;;7.15;66.37;101119.41;2569595;23;20183;-66
2022/04/19 00:53:47;;;;;;;3.63;2.35;;;;;;;7.19;65.86;101120.19;2569953;23;20224;-66
2022/04/19 00:54:48;;;;;;;2.75;2.30;;;;;;;7.19;66.29;101118.22;2569595;23;20152;-66
2022/04/19 00:55:49;;;;;;;3.67;2.47;;;;;;;7.18;66.52;101122.16;2569426;23;20599;-66
2022/04/19 00:56:50;;;;;;;2.70;2.10;;;;;;;7.20;66.23;101119.81;2568955;23;20210;-66
2022/04/19 00:57:51;;;;;;;2.47;1.80;;;;;;;6.36;65.57;101004.22;2570031;23;20144;-66
2022/04/19 00:58:51;;;;;;;3.70;2.70;;;;;;;7.01;65.51;101114.72;2569621;23;20179;-66
2022/04/19 00:59:56;;;;;;;3.67;2.70;;;;;;;7.04;66.04;101133.22;2569047;23;20147;-66
2022/04/19 01:00:58;;;;;;;2.45;2.13;;;;;;;7.06;66.63;101122.59;2569709;23;20167;-66
2022/04/19 01:01:58;;;;;;;3.47;2.60;;;;;;;6.71;66.86;101058.50;2569903;23;20729;-66
2022/04/19 01:02:59;;;;;;;3.57;2.50;;;;;;;7.11;67.21;101110.34;2569627;23;20554;-67
2022/04/19 01:03:59;;;;;;;3.57;2.50;;;;;;;7.22;67.31;101111.91;2569716;23;20151;-67
2022/04/19 01:05:00;;;;;;;3.27;2.20;;;;;;;6.77;66.90;101043.13;2569453;23;20184;-66
2022/04/19 01:06:00;;;;;;;3.57;2.60;;;;;;;7.13;66.37;101105.25;2569651;23;20658;-66
2022/04/19 01:07:01;;;;;;;4.27;2.03;;;;;;;6.54;65.96;101012.47;2568335;23;20155;-66
2022/04/19 01:08:02;;;;;;;3.10;2.10;;;;;;;7.16;66.19;101105.25;2569819;23;20208;-67
2022/04/19 01:09:03;;;;;;;2.90;1.95;;;;;;;7.17;66.07;101109.56;2569147;23;20155;-67
2022/04/19 01:10:04;;;;;;;3.10;2.30;;;;;;;7.13;66.21;101105.25;2570102;23;20163;-67
2022/04/19 01:13:43;;;;;;;3.60;2.40;;;;;;;7.12;66.07;101100.94;2570696;23;20214;-66
2022/04/19 01:14:45;;;;;;;2.57;2.10;;;;;;;7.03;66.34;101097.78;2570356;23;20152;-66
2022/04/19 01:15:47;;;;;;;2.28;2.05;;;;;;;7.06;65.95;101097.78;2570241;23;20147;-66
2022/04/19 01:16:48;;;;;;;2.25;1.92;;;;;;;7.15;65.90;101095.41;2569741;23;20494;-66
2022/04/19 01:17:48;;;;;;;2.83;2.37;;;;;;;6.89;66.28;101093.09;2570225;23;20148;-66
2022/04/19 01:18:49;;;;;;;3.60;2.43;;;;;;;7.09;66.63;101099.75;2570271;23;20151;-66
2022/04/19 01:19:51;;;;;;;4.20;2.60;;;;;;;7.12;66.37;101104.44;2570046;23;20614;-67
2022/04/19 01:20:52;;;;;;;3.65;2.90;;;;;;;7.14;66.43;101104.84;2570436;23;20147;-67
2022/04/19 01:21:57;;;;;;;3.95;2.40;;;;;;;6.64;66.37;101026.25;2570494;23;20153;-67
2022/04/19 01:22:57;;;;;;;4.57;2.90;;;;;;;7.18;66.09;101100.09;2570386;23;20150;-67
2022/04/19 01:23:58;;;;;;;4.27;3.17;;;;;;;7.05;66.28;101100.94;2570584;23;20152;-67
2022/04/19 01:24:58;;;;;;;4.63;3.00;;;;;;;7.00;66.19;101102.13;2570245;23;20511;-67
2022/04/19 01:25:59;;;;;;;4.57;3.00;;;;;;;7.00;66.20;101098.56;2570411;23;20148;-67
2022/04/19 01:27:00;;;;;;;4.63;3.47;;;;;;;6.88;67.02;101088.75;2569445;23;20176;-67
2022/04/19 01:28:00;;;;;;;3.93;2.90;;;;;;;7.04;66.86;101102.13;2570485;23;20252;-67
2022/04/19 01:29:01;;;;;;;5.67;3.53;;;;;;;7.04;67.09;101096.59;2569953;23;20668;-67
2022/04/19 01:30:04;;;;;;;3.97;3.20;;;;;;;7.05;66.41;101100.94;2570479;23;20590;-67
2022/04/19 01:31:06;;;;;;;6.03;3.30;;;;;;;6.12;66.68;100968.47;2570380;23;20158;-67
2022/04/19 01:32:07;;;;;;;3.40;2.83;;;;;;;6.99;66.43;101097.81;2570446;23;20672;-67
2022/04/19 01:33:08;;;;;;;3.40;2.53;;;;;;;7.02;67.26;101101.72;2570433;23;20151;-67
2022/04/19 01:34:09;;;;;;;4.67;2.60;;;;;;;7.06;67.31;101097.78;2557138;23;20161;-67
2022/04/19 01:35:13;;;;;;;3.47;2.55;;;;;;;7.06;66.36;101105.25;2557018;23;20207;-67
2022/04/19 01:36:14;;;;;;;3.55;2.85;;;;;;;7.03;67.06;101103.31;2570496;23;20160;-67
2022/04/19 01:37:15;;;;;;;3.40;2.90;;;;;;;7.06;66.63;101119.81;2569529;23;20160;-67
2022/04/19 01:38:15;;;;;;;3.03;2.67;;;;;;;7.13;66.61;101097.75;2570317;23;20198;-67
2022/04/19 01:39:16;;;;;;;3.63;2.97;;;;;;;7.13;66.69;101099.75;2570149;23;20585;-67
2022/04/19 01:40:17;;;;;;;3.83;2.80;;;;;;;7.11;66.39;101100.13;2570621;23;20156;-67
2022/04/19 01:41:18;;;;;;;3.90;3.35;;;;;;;7.10;66.71;101104.06;2570479;23;20591;-67
2022/04/19 01:42:18;;;;;;;4.37;2.77;;;;;;;7.08;66.11;101103.66;2570815;23;20178;-67
2022/04/19 01:43:19;;;;;;;3.77;3.00;;;;;;;7.02;67.00;101088.72;2570281;23;20278;-67
2022/04/19 01:44:20;;;;;;;4.88;3.15;;;;;;;7.01;66.87;101089.91;2570524;23;20156;-67
2022/04/19 01:45:24;;;;;;;4.57;3.20;;;;;;;6.77;66.93;101056.91;2570039;23;20151;-67
2022/04/19 01:46:26;;;;;;;4.07;2.63;;;;;;;6.96;66.80;101075.75;2556595;23;20554;-67
2022/04/19 01:47:27;;;;;;;3.60;2.70;;;;;;;6.56;66.96;101005.38;2557230;23;20169;-67
2022/04/19 01:48:27;;;;;;;3.70;2.80;;;;;;;7.11;66.55;101094.63;2556865;23;20188;-67
2022/04/19 01:49:28;;;;;;;3.27;2.83;;;;;;;7.08;66.74;101089.13;2556815;23;20156;-67
2022/04/19 01:50:29;;;;;;;4.03;3.10;;;;;;;7.13;67.15;101097.75;2570159;23;20173;-67
2022/04/19 01:51:30;;;;;;;3.80;2.70;;;;;;;7.11;66.17;101089.09;2570519;23;20148;-67
2022/04/19 01:52:31;;;;;;;3.43;2.90;;;;;;;7.15;66.53;101091.84;2570220;23;20162;-67
2022/04/19 01:53:31;;;;;;;3.90;2.83;;;;;;;7.21;66.12;101095.75;2570574;23;20158;-67
2022/04/19 01:54:33;;;;;;;3.47;2.80;;;;;;;7.20;66.52;101114.28;2570311;23;20176;-67
2022/04/19 01:55:34;;;;;;;3.38;2.67;;;;;;;7.23;66.24;101098.94;2569975;23;20154;-67
2022/04/19 01:56:34;;;;;;;3.47;2.57;;;;;;;7.20;66.28;101097.75;2569813;23;20227;-67
2022/04/19 01:57:36;;;;;;;4.40;2.83;;;;;;;6.34;66.31;100961.75;2570072;23;20144;-67
2022/04/19 01:58:37;;;;;;;4.53;2.67;;;;;;;7.19;66.66;101089.88;2570212;23;20495;-66
2022/04/19 01:59:37;;;;;;;3.60;2.90;;;;;;;7.20;66.02;101094.19;2570170;23;20149;-66
2022/04/19 02:00:38;;;;;;;3.90;3.17;;;;;;;7.16;66.49;101094.22;2569831;23;20190;-66
2022/04/19 02:01:38;;;;;;;4.27;3.10;;;;;;;7.21;66.40;101087.50;2570489;23;20545;-66
2022/04/19 02:02:40;;;;;;;3.73;3.03;;;;;;;6.35;65.89;100966.88;2570450;23;20152;-66
2022/04/19 02:03:41;;;;;;;3.60;3.05;;;;;;;7.16;66.29;101088.69;2570484;23;20232;-66
2022/04/19 02:04:42;;;;;;;5.07;2.80;;;;;;;7.21;65.70;101090.25;2570285;23;20160;-66
2022/04/19 02:05:42;;;;;;;4.15;3.08;;;;;;;7.30;65.55;101104.41;2570296;23;20147;-66
2022/04/19 02:06:43;;;;;;;3.40;2.90;;;;;;;7.32;65.44;101096.50;2569851;23;20641;-66
2022/04/19 02:07:45;;;;;;;4.97;3.10;;;;;;;7.13;65.56;101072.94;2570010;23;20499;-66
2022/04/19 02:08:46;;;;;;;3.13;2.75;;;;;;;7.38;65.71;101103.22;2570092;23;20152;-66
2022/04/19 02:09:47;;;;;;;4.67;3.20;;;;;;;7.43;65.73;101100.06;2569798;23;20209;-66
2022/04/19 02:10:48;;;;;;;4.35;3.05;;;;;;;7.50;66.59;101098.06;2570173;23;20180;-66
2022/04/19 02:11:48;;;;;;;5.70;3.40;;;;;;;7.54;66.93;101098.81;2570517;23;20159;-66
2022/04/19 02:12:52;;;;;;;4.37;3.13;;;;;;;7.59;67.19;101103.91;2570413;23;20145;-66
2022/04/19 02:13:52;;;;;;;5.97;3.25;;;;;;;7.67;67.24;101099.94;2570541;23;20495;-66
2022/04/19 02:14:54;;;;;;;6.70;3.67;;;;;;;7.74;66.77;101101.88;2570380;23;20145;-66
2022/04/19 02:15:54;;;;;;;6.40;3.38;;;;;;;7.83;67.21;101104.97;2570174;23;20180;-66
2022/04/19 02:16:56;;;;;;;4.90;3.40;;;;;;;7.87;66.80;101106.53;2569896;23;20639;-66
2022/04/19 02:17:56;;;;;;;5.80;3.72;;;;;;;7.96;66.53;101106.09;2570259;23;20153;-66
2022/04/19 02:18:57;;;;;;;5.00;3.07;;;;;;;7.99;66.60;101103.31;2569854;23;20206;-66
2022/04/19 02:20:04;;;;;;;4.47;3.47;;;;;;;8.04;66.15;101102.88;2570299;23;20152;-66
2022/04/19 02:21:04;;;;;;;5.10;3.17;;;;;;;8.10;66.00;101100.50;2570394;23;20477;-66
2022/04/19 02:22:09;;;;;;;4.43;3.30;;;;;;;7.67;65.28;101036.50;2570172;23;20149;-66
2022/04/19 02:23:09;;;;;;;3.72;2.92;;;;;;;8.21;65.76;101113.06;2570533;23;20610;-66
2022/04/19 02:24:10;;;;;;;5.70;2.70;;;;;;;7.59;64.75;101021.16;2570346;23;20477;-66
2022/04/19 02:25:13;;;;;;;3.53;2.57;;;;;;;8.27;65.16;101118.94;2569869;23;20148;-66
2022/04/19 02:26:13;;;;;;;3.55;2.78;;;;;;;8.19;64.94;101098.06;2570210;23;20176;-66
2022/04/19 02:27:15;;;;;;;3.93;2.77;;;;;;;8.30;64.24;101109.88;2569674;23;20153;-66
2022/04/19 02:28:15;;;;;;;3.67;2.55;;;;;;;8.23;64.43;101099.66;2570184;23;20231;-66
2022/04/19 02:29:16;;;;;;;2.97;2.63;;;;;;;8.31;64.46;101112.19;2570183;23;20164;-66
2022/04/19 02:30:18;;;;;;;3.20;2.50;;;;;;;8.36;64.49;101114.53;2570301;23;20514;-66
2022/04/19 02:31:18;;;;;;;4.00;2.60;;;;;;;7.92;64.56;101041.84;2570437;23;20483;-66
2022/04/19 02:32:19;;;;;;;4.90;2.70;;;;;;;7.93;64.80;101027.66;2570335;23;20174;-66
2022/04/19 02:33:20;;;;;;;2.70;2.20;;;;;;;8.30;64.97;101085.00;2570316;23;20228;-66
2022/04/19 02:34:21;;;;;;;2.97;2.67;;;;;;;8.48;64.68;101118.78;2570201;23;20681;-66
2022/04/19 02:35:23;;;;;;;5.03;2.60;;;;;;;8.49;65.01;101112.88;2569872;23;20164;-66
2022/04/19 02:36:23;;;;;;;3.63;2.47;;;;;;;8.51;64.83;101115.25;2569971;23;20149;-66
2022/04/19 02:37:24;;;;;;;2.63;2.30;;;;;;;8.53;64.83;101112.84;2569998;23;20583;-66
2022/04/19 02:38:24;;;;;;;2.80;2.50;;;;;;;8.52;64.13;101116.81;2570327;23;20151;-66
2022/04/19 02:39:25;;;;;;;4.50;2.60;;;;;;;8.48;64.57;101105.78;2556694;23;20244;-66
2022/04/19 02:40:26;;;;;;;2.90;2.57;;;;;;;8.53;64.52;101105.34;2556927;23;20166;-66
2022/04/19 02:41:28;;;;;;;3.92;2.65;;;;;;;8.53;64.32;101105.34;2570478;23;20152;-66
2022/04/19 02:42:28;;;;;;;3.22;2.50;;;;;;;8.55;64.57;101108.47;2570296;23;20156;-66
2022/04/19 02:43:29;;;;;;;3.60;2.67;;;;;;;8.59;64.28;101102.91;2570305;23;20185;-66
2022/04/19 02:44:30;;;;;;;3.35;2.78;;;;;;;8.57;63.92;101121.91;2570129;23;20156;-66
2022/04/19 02:45:31;;;;;;;4.83;2.77;;;;;;;8.52;64.53;101097.47;2569871;23;20155;-66
2022/04/19 02:46:33;;;;;;;3.67;2.70;;;;;;;8.58;64.15;101112.41;2569617;23;20145;-67
2022/04/19 02:47:34;;;;;;;3.40;2.50;;;;;;;8.58;64.70;101107.69;2570108;23;20187;-67
2022/04/19 02:48:35;;;;;;;3.33;2.43;;;;;;;8.58;64.41;101104.91;2570037;23;20153;-67
2022/04/19 02:49:36;;;;;;;3.20;2.63;;;;;;;8.57;64.91;101102.56;2569899;23;20168;-67
2022/04/19 02:50:42;;;;;;;3.50;2.80;;;;;;;8.59;64.93;101108.44;2570041;23;20225;-67
2022/04/19 02:51:43;;;;;;;4.60;2.53;;;;;;;8.55;65.06;101102.16;2570258;23;20212;-67
2022/04/19 02:52:44;;;;;;;3.37;2.70;;;;;;;7.61;64.43;100960.09;2570060;23;20148;-67
2022/04/19 02:53:45;;;;;;;3.50;2.92;;;;;;;8.57;64.96;101116.38;2570389;23;20148;-67
2022/04/19 02:54:45;;;;;;;3.60;2.70;;;;;;;8.18;64.77;101050.34;2570170;23;20199;-67
2022/04/19 02:55:46;;;;;;;3.30;2.30;;;;;;;8.59;64.85;101114.78;2569838;23;20475;-67
2022/04/19 02:56:47;;;;;;;4.93;3.10;;;;;;;8.61;64.43;101108.84;2569664;23;20665;-67
2022/04/19 02:57:48;;;;;;;3.55;2.90;;;;;;;8.60;64.92;101118.28;2570005;23;20213;-67
2022/04/19 02:58:48;;;;;;;4.10;2.60;;;;;;;8.58;64.65;101109.66;2570085;23;20208;-67
2022/04/19 02:59:49;;;;;;;4.60;3.00;;;;;;;8.50;64.80;101097.09;2569846;23;20226;-67
2022/04/19 03:00:49;;;;;;;3.20;2.57;;;;;;;8.60;64.86;101116.34;2570030;23;20176;-67
2022/04/19 03:01:50;;;;;;;4.03;2.90;;;;;;;8.62;64.99;101113.16;2570297;23;20216;-67
2022/04/19 03:02:52;;;;;;;3.13;2.60;;;;;;;8.62;64.94;101115.94;2570094;23;20555;-67
2022/04/19 03:03:52;;;;;;;3.53;2.78;;;;;;;8.07;64.54;101029.53;2570277;23;20159;-67
2022/04/19 03:04:53;;;;;;;3.50;2.90;;;;;;;8.61;65.03;101115.13;2570203;23;20168;-67
2022/04/19 03:05:53;;;;;;;4.07;2.70;;;;;;;8.56;65.01;101114.81;2569963;23;20145;-67
2022/04/19 03:06:54;;;;;;;5.43;2.87;;;;;;;8.26;65.51;101070.44;2569663;23;20152;-67
2022/04/19 03:07:54;;;;;;;3.83;3.03;;;;;;;8.50;65.75;101119.97;2569759;23;20176;-67
2022/04/19 03:08:55;;;;;;;5.00;3.17;;;;;;;8.42;65.55;101112.13;2569854;23;20161;-67
2022/04/19 03:09:55;;;;;;;4.37;2.93;;;;;;;8.48;65.97;101119.59;2569719;23;20153;-66
2022/04/19 03:10:58;;;;;;;3.90;2.83;;;;;;;8.34;65.91;101110.59;2570160;23;20152;-66
2022/04/19 03:11:59;;;;;;;3.75;2.90;;;;;;;8.39;65.91;101119.25;2570109;23;20148;-66
2022/04/19 03:13:00;;;;;;;5.23;3.40;;;;;;;8.39;66.37;101115.69;2570100;23;20149;-66
2022/04/19 03:14:00;;;;;;;3.83;2.87;;;;;;;8.39;66.75;101126.75;2570229;23;20235;-66
2022/04/19 03:15:01;;;;;;;4.03;3.07;;;;;;;8.26;66.46;101115.38;2569746;23;20206;-66
2022/04/19 03:16:02;;;;;;;3.47;3.00;;;;;;;8.32;66.39;101122.09;2570243;23;20496;-66
2022/04/19 03:17:03;;;;;;;3.70;2.88;;;;;;;8.22;66.66;101111.09;2569453;23;20282;-66
2022/04/19 03:18:04;;;;;;;3.00;2.70;;;;;;;8.37;66.54;101123.63;2570232;23;20163;-66
2022/04/19 03:19:05;;;;;;;3.50;3.00;;;;;;;8.33;67.20;101126.41;2569703;23;20155;-66
2022/04/19 03:20:09;;;;;;;3.67;3.00;;;;;;;8.37;66.81;101132.69;2570054;23;20231;-66
2022/04/19 03:21:10;;;;;;;3.65;2.92;;;;;;;8.32;67.16;101124.84;2570078;23;20229;-66
2022/04/19 03:22:11;;;;;;;4.55;3.30;;;;;;;8.45;66.94;101144.47;2570127;23;20210;-66
2022/04/19 03:28:28;;;;;;;4.30;3.20;;;;;;;8.53;67.00;101140.47;2570020;23;20497;-66
2022/04/19 03:29:29;;;;;;;4.87;2.90;;;;;;;8.01;66.91;101062.31;2569949;23;20160;-66
2022/04/19 03:30:29;;;;;;;3.60;3.10;;;;;;;8.40;66.96;101122.81;2569977;23;20231;-66
2022/04/19 03:31:31;;;;;;;3.17;2.87;;;;;;;8.56;66.07;101147.94;2570401;23;20201;-66
2022/04/19 03:32:32;;;;;;;3.33;3.00;;;;;;;8.55;66.13;101144.38;2570043;23;20159;-66
2022/04/19 03:33:36;;;;;;;3.30;2.93;;;;;;;8.58;65.94;101137.28;2569822;23;20149;-66
2022/04/19 03:34:36;;;;;;;3.55;3.15;;;;;;;8.52;66.36;101134.16;2570035;23;20177;-66
2022/04/19 03:35:37;;;;;;;3.80;3.30;;;;;;;8.62;66.54;101146.31;2569843;23;20172;-66
2022/04/19 03:36:38;;;;;;;3.53;3.05;;;;;;;8.62;66.08;101149.09;2569370;23;20163;-66
2022/04/19 03:37:39;;;;;;;5.27;3.60;;;;;;;8.61;66.14;101145.53;2569798;23;20153;-66
2022/04/19 03:38:40;;;;;;;4.17;3.20;;;;;;;8.62;66.01;101146.31;2569782;23;20153;-66
2022/04/19 03:39:40;;;;;;;4.03;3.20;;;;;;;8.61;66.17;101150.28;2569776;23;20174;-66
2022/04/19 03:40:41;;;;;;;4.20;3.43;;;;;;;8.60;66.15;101140.41;2556652;23;20198;-66
2022/04/19 03:41:41;;;;;;;4.00;3.10;;;;;;;8.63;65.96;101145.13;2556927;23;20226;-66
2022/04/19 03:42:42;;;;;;;4.40;3.17;;;;;;;8.66;65.70;101145.09;2570011;23;20153;-66
2022/04/19 03:43:42;;;;;;;3.77;3.10;;;;;;;8.59;65.51;101133.31;2570213;23;20575;-66
2022/04/19 03:44:43;;;;;;;4.63;2.90;;;;;;;8.69;65.81;101162.84;2556627;23;20153;-66
2022/04/19 03:45:44;;;;;;;4.27;2.87;;;;;;;8.10;65.74;101057.09;2556612;23;20224;-66
2022/04/19 03:48:04;;;;;;;3.45;2.75;;;;;;;8.72;65.63;101148.97;2570063;23;20170;-66
2022/04/19 03:49:06;;;;;;;3.40;3.08;;;;;;;8.74;65.21;101145.81;2569600;23;20160;-66
2022/04/19 03:50:07;;;;;;;3.67;3.10;;;;;;;8.75;65.44;101148.19;2569965;23;20152;-66
2022/04/19 03:51:07;;;;;;;3.90;3.23;;;;;;;8.75;64.91;101141.84;2556921;23;20178;-67
2022/04/19 03:52:10;;;;;;;3.77;3.10;;;;;;;8.77;65.30;101147.78;2556983;23;20649;-67
2022/04/19 03:53:10;;;;;;;4.13;3.05;;;;;;;8.77;65.21;101156.84;2569827;23;20231;-67
2022/04/19 03:54:11;;;;;;;6.20;3.20;;;;;;;8.78;65.24;101143.81;2569845;23;20148;-67
2022/04/19 03:55:11;;;;;;;4.80;3.17;;;;;;;8.77;65.40;101151.31;2569743;23;20158;-67
2022/04/19 03:56:12;;;;;;;4.43;3.30;;;;;;;8.77;65.56;101147.78;2570009;23;20211;-67
2022/04/19 03:57:12;;;;;;;4.00;3.60;;;;;;;8.76;65.71;101141.47;2569155;23;20152;-67
2022/04/19 03:58:13;;;;;;;3.73;3.10;;;;;;;8.76;65.88;101138.69;2569884;23;20172;-67
2022/04/19 03:59:14;;;;;;;3.80;3.40;;;;;;;8.76;65.83;101146.97;2569810;23;20163;-67
2022/04/19 04:00:15;;;;;;;3.60;3.10;;;;;;;8.72;66.09;101143.47;2570000;23;20227;-67
2022/04/19 04:01:15;;;;;;;3.40;3.05;;;;;;;8.67;66.23;101140.38;2556741;23;20151;-67
2022/04/19 04:02:16;;;;;;;3.87;3.30;;;;;;;8.66;66.18;101139.56;2556850;23;20157;-67
2022/04/19 04:03:16;;;;;;;3.83;3.23;;;;;;;8.47;66.04;101120.00;2570042;23;20210;-67
2022/04/19 04:04:17;;;;;;;4.27;3.10;;;;;;;8.70;66.48;101158.88;2569979;23;20148;-67
2022/04/19 04:05:18;;;;;;;4.73;3.20;;;;;;;8.69;66.33;101154.53;2569589;23;20540;-67
2022/04/19 04:06:19;;;;;;;5.25;3.20;;;;;;;8.69;66.32;101160.88;2556407;23;20160;-67
2022/04/19 04:07:20;;;;;;;3.80;3.40;;;;;;;8.71;66.61;101154.94;2555456;23;20607;-67
2022/04/19 04:08:20;;;;;;;4.03;3.10;;;;;;;8.22;66.57;101076.00;2568785;23;20230;-67
2022/04/19 04:09:21;;;;;;;3.53;3.10;;;;;;;8.67;66.50;101159.69;2568679;23;20157;-67
2022/04/19 04:10:21;;;;;;;4.33;3.37;;;;;;;8.72;66.70;101159.28;2569524;23;20149;-67
2022/04/19 04:11:22;;;;;;;3.47;2.97;;;;;;;8.70;66.59;101154.16;2569852;23;20156;-67
2022/04/19 04:12:22;;;;;;;3.50;2.90;;;;;;;8.66;66.22;101158.13;2569844;23;20148;-67
2022/04/19 04:13:23;;;;;;;4.70;3.27;;;;;;;8.59;66.82;101155.41;2569605;23;20161;-67
2022/04/19 04:14:23;;;;;;;4.37;3.00;;;;;;;8.51;66.92;101148.38;2570041;23;20148;-67
2022/04/19 04:15:24;;;;;;;3.53;3.00;;;;;;;8.48;66.86;101132.59;2569508;23;20159;-67
2022/04/19 04:16:24;;;;;;;3.40;2.80;;;;;;;8.60;66.93;101160.53;2569468;23;20152;-67
2022/04/19 04:17:25;;;;;;;2.73;2.17;;;;;;;8.61;66.54;101164.88;2569465;23;20152;-67
2022/04/19 04:18:25;;;;;;;4.23;2.63;;;;;;;8.59;66.39;101160.94;2569817;23;20400;-67
2022/04/19 04:19:26;;;;;;;2.93;2.63;;;;;;;8.61;66.06;101167.63;2569263;23;20606;-67
2022/04/19 04:20:27;;;;;;;3.90;2.50;;;;;;;8.58;66.23;101153.84;2569681;23;20582;-67
2022/04/19 04:21:27;;;;;;;5.93;2.70;;;;;;;8.64;66.07;101158.53;2569955;23;20489;-67
2022/04/19 04:22:28;;;;;;;3.93;2.87;;;;;;;8.01;66.17;101067.03;2569709;23;20637;-67
2022/04/19 04:23:32;;;;;;;4.17;3.20;;;;;;;8.67;66.07;101159.69;2569849;23;20227;-67
2022/04/19 04:24:33;;;;;;;3.67;3.03;;;;;;;8.33;66.71;101101.56;2569633;23;20148;-67
2022/04/19 04:25:34;;;;;;;3.87;2.90;;;;;;;8.71;66.57;101166.00;2569409;23;20228;-67
2022/04/19 04:26:34;;;;;;;5.47;3.40;;;;;;;8.73;66.31;101158.88;2555443;23;20188;-67
2022/04/19 04:27:35;;;;;;;4.17;3.60;;;;;;;8.76;66.34;101165.56;2556368;23;20157;-67
2022/04/19 04:28:35;;;;;;;5.43;4.70;;;;;;;8.81;66.23;101165.91;2568966;23;20179;-67
2022/04/19 04:29:36;;;;;;;5.90;4.83;;;;;;;8.77;66.34;101156.84;2569196;23;20173;-67
2022/04/19 04:30:37;;;;;;;4.47;3.83;;;;;;;8.84;65.94;101175.34;2569488;23;20281;-67
2022/04/19 04:31:38;;;;;;;3.93;3.00;;;;;;;8.66;66.05;101136.03;2569742;23;20669;-67
2022/04/19 04:32:39;;;;;;;4.93;3.80;;;;;;;8.88;65.85;101159.53;2569557;23;20156;-67
2022/04/19 04:33:39;;;;;;;5.23;3.30;;;;;;;8.83;65.83;101160.75;2569747;23;20471;-67
2022/04/19 04:34:40;;;;;;;4.27;3.20;;;;;;;8.29;65.75;101061.34;2569565;23;20148;-67
2022/04/19 04:35:41;;;;;;;3.50;2.93;;;;;;;8.73;65.50;101134.00;2569193;23;20159;-67
2022/04/19 04:36:41;;;;;;;6.23;5.10;;;;;;;8.98;66.10;101167.72;2568719;23;20410;-67
2022/04/19 04:37:42;;;;;;;4.53;3.60;;;;;;;9.02;65.81;101167.72;2552791;23;20240;-67
2022/04/19 04:38:42;;;;;;;4.33;3.00;;;;;;;9.02;65.44;101176.00;2553902;23;20600;-67
2022/04/19 04:39:43;;;;;;;4.87;3.70;;;;;;;8.41;65.03;101075.44;2567988;23;20163;-67
2022/04/19 04:40:44;;;;;;;4.50;3.73;;;;;;;9.01;65.50;101169.69;2568648;23;20157;-67
2022/04/19 04:41:45;;;;;;;5.03;3.90;;;;;;;7.99;65.28;101014.22;2565748;23;20145;-67
2022/04/19 04:42:45;;;;;;;9.27;4.03;;;;;;;8.79;65.52;101132.38;2568124;23;20185;-67
2022/04/19 04:43:46;;;;;;;5.43;3.90;;;;;;;9.05;65.36;101173.19;2569280;23;20614;-67
2022/04/19 04:44:46;;;;;;;6.00;5.00;;;;;;;9.06;65.29;101174.75;2569101;23;20275;-66
2022/04/19 04:49:35;;;;;;;5.43;4.77;;;;;;;9.07;65.31;101172.78;2566396;23;20534;-66
2022/04/19 04:49:52;;;;;;;6.07;4.10;;;;;;;9.04;65.63;101179.94;2567533;23;20150;-66
2022/04/19 04:50:53;;;;;;;6.40;3.90;;;;;;;9.03;65.37;101181.09;2566125;23;20600;-66
2022/04/19 04:51:54;;;;;;;6.80;3.70;;;;;;;9.00;65.73;101176.41;2568865;23;20232;-66
2022/04/19 04:52:55;;;;;;;5.05;4.43;;;;;;;9.01;65.71;101174.41;2562593;23;20388;-66
2022/04/19 04:53:55;;;;;;;5.37;4.13;;;;;;;9.01;65.88;101188.22;2567166;23;20148;-66
2022/04/19 04:54:56;;;;;;;6.10;4.60;;;;;;;9.03;65.92;101177.56;2563703;23;20515;-66
2022/04/19 04:55:57;;;;;;;7.23;4.50;;;;;;;8.24;65.73;101054.28;2567011;23;20241;-67
2022/04/19 04:56:57;;;;;;;5.17;3.97;;;;;;;8.60;65.70;101112.78;2567409;23;20236;-67
2022/04/19 04:58:01;;;;;;;14.47;10.87;;;;;;;9.06;66.07;101182.25;2568515;23;20220;-66
2022/04/19 04:59:01;;;;;;;16.60;14.38;;;;;;;9.10;65.85;101183.81;2554764;23;20169;-66
2022/04/19 05:00:03;;;;;;;16.97;13.60;;;;;;;9.11;65.86;101185.38;2554901;23;20156;-66